KCEU/CEU METAR and TAF weather

Enter ICAO airport designator
Station Type Date Time Source
KCEU METAR 2020/04/06 18:54 UTC NOAA

KCEU 061854Z AUTO VRB05KT 10SM CLR 27/09 A3004 RMK AO2 SLP164 T02720094


Station Type Date Time Source
KCEU Decoded METAR 2020/04/06 18:54 UTC NOAA

CLEMSON-OCONEE COUNTY AIRPORT , SC, United States (KCEU) 34-40N 082-53W 268M
Apr 06, 2020 - 02:54 PM EDT / 2020.04.06 1854 UTC
Wind: Variable at 6 MPH (5 KT):0
Visibility: 10 mile(s):0
Sky conditions: clear
Temperature: 81.0 F (27.2 C)
Dew Point: 48.9 F (9.4 C)
Relative Humidity: 32%
Pressure (altimeter): 30.04 in. Hg (1017 hPa)
ob: KCEU 061854Z AUTO VRB05KT 10SM CLR 27/09 A3004 RMK AO2 SLP164 T02720094
cycle: 19

Station Type Date Time Source
KCEU TAF UTC NOAA

Error!

Example: see airport list